createdAt,value
2023-02-21T00:02:19.629Z,31.13
2023-02-21T00:05:06.058Z,34.83
2023-02-21T00:07:52.272Z,35.95
2023-02-21T00:10:38.540Z,29.75
2023-02-21T00:13:24.360Z,33.38
2023-02-21T00:16:10.455Z,31.10
2023-02-21T00:18:57.173Z,27.13
2023-02-21T00:21:46.125Z,23.65
2023-02-21T00:24:36.533Z,23.42
2023-02-21T00:27:23.183Z,29.70
2023-02-21T00:30:10.230Z,25.27
2023-02-21T00:32:56.345Z,21.45
2023-02-21T00:35:42.125Z,25.38
2023-02-21T00:38:29.252Z,21.77
2023-02-21T00:41:15.453Z,21.15
2023-02-21T00:44:02.111Z,23.35
2023-02-21T00:46:48.042Z,21.50
2023-02-21T00:49:34.251Z,20.65
2023-02-21T00:52:20.030Z,18.27
2023-02-21T00:55:06.316Z,17.17
2023-02-21T00:57:51.930Z,20.73
2023-02-21T01:00:40.993Z,14.82
2023-02-21T01:03:27.149Z,16.48
2023-02-21T01:06:15.609Z,19.00
2023-02-21T01:09:05.736Z,17.52
2023-02-21T01:11:52.187Z,20.15
2023-02-21T01:14:38.516Z,19.80
2023-02-21T01:17:24.683Z,21.00
2023-02-21T01:20:10.678Z,24.65
2023-02-21T01:22:56.826Z,25.10
2023-02-21T01:25:42.941Z,23.25
2023-02-21T01:28:28.711Z,25.70
2023-02-21T01:31:14.942Z,27.38
2023-02-21T01:34:01.591Z,30.15
2023-02-21T01:36:47.737Z,29.08
2023-02-21T01:39:34.143Z,27.85
2023-02-21T01:42:20.390Z,31.23
2023-02-21T01:45:07.796Z,25.27
2023-02-21T01:47:53.853Z,24.00
2023-02-21T01:50:45.025Z,22.90
2023-02-21T01:53:39.632Z,25.73
2023-02-21T01:56:27.718Z,20.50
2023-02-21T01:59:17.707Z,28.60
2023-02-21T02:02:06.471Z,23.08
2023-02-21T02:04:53.114Z,21.55
2023-02-21T02:07:40.150Z,18.23
2023-02-21T02:10:31.715Z,21.75
2023-02-21T02:13:15.196Z,23.10
2023-02-21T02:15:51.151Z,18.77
2023-02-21T02:18:25.658Z,24.92
2023-02-21T02:21:38.002Z,22.63
2023-02-21T02:24:32.459Z,25.55
2023-02-21T02:27:30.178Z,25.50
2023-02-21T02:30:11.714Z,24.50
2023-02-21T02:33:06.424Z,25.55
2023-02-21T02:35:46.558Z,26.50
2023-02-21T02:38:41.446Z,19.35
2023-02-21T02:41:35.026Z,22.08
2023-02-21T02:44:25.944Z,19.75
2023-02-21T02:46:55.954Z,17.67
2023-02-21T02:49:28.072Z,18.10
2023-02-21T02:51:56.223Z,18.98
2023-02-21T02:54:25.509Z,16.17
2023-02-21T02:56:53.378Z,15.20
2023-02-21T02:59:26.781Z,14.15
2023-02-21T03:02:28.857Z,12.90
2023-02-21T03:05:20.231Z,13.60
2023-02-21T03:07:58.341Z,12.70
2023-02-21T03:10:54.964Z,12.15
2023-02-21T03:13:43.369Z,12.02
2023-02-21T03:16:19.530Z,11.65
2023-02-21T03:18:58.072Z,8.70
2023-02-21T03:21:29.368Z,8.38
2023-02-21T03:24:00.377Z,7.17
2023-02-21T03:26:31.993Z,5.05
2023-02-21T03:29:09.974Z,5.68
2023-02-21T03:31:45.989Z,6.05
2023-02-21T03:34:14.135Z,5.95
2023-02-21T03:36:42.149Z,6.15
2023-02-21T03:39:10.675Z,5.45
2023-02-21T03:41:37.989Z,5.60
2023-02-21T03:44:05.653Z,5.50
2023-02-21T03:46:34.388Z,5.25
2023-02-21T03:49:01.865Z,5.57
2023-02-21T03:51:30.168Z,6.05
2023-02-21T03:53:57.872Z,8.70
2023-02-21T03:56:41.568Z,11.57
2023-02-21T03:59:24.303Z,10.85
2023-02-21T04:01:51.535Z,11.75
2023-02-21T04:04:19.892Z,12.70
2023-02-21T04:06:52.706Z,13.40
2023-02-21T04:09:20.619Z,13.68
2023-02-21T04:11:47.979Z,15.48
2023-02-21T04:14:15.583Z,19.80
2023-02-21T04:16:43.271Z,15.32
2023-02-21T04:19:11.123Z,15.95
2023-02-21T04:21:39.485Z,14.73
2023-02-21T04:24:07.222Z,17.88
2023-02-21T04:26:35.104Z,15.25
2023-02-21T04:29:05.065Z,13.65
2023-02-21T04:31:33.079Z,12.75
2023-02-21T04:34:11.633Z,13.30
2023-02-21T04:36:40.349Z,16.00
2023-02-21T04:39:08.438Z,14.05
2023-02-21T04:41:35.707Z,29.17
2023-02-21T04:44:03.545Z,15.40
2023-02-21T04:46:33.320Z,0.03
2023-02-21T04:49:00.752Z,0.08
2023-02-21T04:51:28.133Z,1.48
2023-02-21T04:53:56.089Z,0.00
2023-02-21T04:56:27.412Z,0.00
2023-02-21T04:58:55.996Z,0.00
2023-02-21T05:01:23.464Z,0.00
2023-02-21T05:03:51.192Z,0.10
2023-02-21T05:06:23.762Z,0.00
2023-02-21T05:08:51.704Z,0.00
2023-02-21T05:11:20.385Z,0.00
2023-02-21T05:13:48.196Z,0.00
2023-02-21T05:16:16.108Z,0.00
2023-02-21T05:18:44.616Z,0.00
2023-02-21T05:21:12.224Z,0.00
2023-02-21T05:23:41.157Z,0.00
2023-02-21T05:26:12.004Z,0.00
2023-02-21T05:28:40.835Z,2.72
2023-02-21T05:31:08.908Z,0.60
2023-02-21T05:33:36.566Z,5.55
2023-02-21T05:36:03.947Z,5.63
2023-02-21T05:38:31.435Z,7.95
2023-02-21T05:40:58.714Z,7.03
2023-02-21T05:43:28.738Z,3.00
2023-02-21T05:45:56.246Z,9.68
2023-02-21T05:48:24.122Z,5.30
2023-02-21T05:50:51.363Z,7.07
2023-02-21T05:53:18.805Z,4.85
2023-02-21T05:55:46.035Z,5.68
2023-02-21T05:58:13.810Z,8.18
2023-02-21T06:00:41.031Z,4.40
2023-02-21T06:03:08.881Z,9.02
2023-02-21T06:05:36.252Z,5.85
2023-02-21T06:08:04.805Z,6.45
2023-02-21T06:10:32.081Z,8.98
2023-02-21T06:12:59.840Z,11.45
2023-02-21T06:15:27.128Z,6.10
2023-02-21T06:17:54.723Z,5.28
2023-02-21T06:20:22.214Z,8.25
2023-02-21T06:22:50.009Z,9.45
2023-02-21T06:25:17.538Z,6.30
2023-02-21T06:27:45.020Z,9.63
2023-02-21T06:30:12.890Z,8.10
2023-02-21T06:32:41.600Z,9.05
2023-02-21T06:35:10.082Z,6.60
2023-02-21T06:37:37.523Z,9.68
2023-02-21T06:40:05.333Z,12.52
2023-02-21T06:42:32.880Z,15.63
2023-02-21T06:45:00.158Z,7.47
2023-02-21T06:47:27.564Z,10.23
2023-02-21T06:49:54.727Z,11.70
2023-02-21T06:52:22.210Z,11.43
2023-02-21T06:54:52.359Z,14.18
2023-02-21T06:57:20.052Z,8.65
2023-02-21T06:59:47.214Z,16.63
2023-02-21T07:02:19.853Z,15.20
2023-02-21T07:07:15.150Z,14.57
2023-02-21T07:09:42.446Z,10.32
2023-02-21T07:12:09.928Z,17.27
2023-02-21T07:14:37.128Z,17.30
2023-02-21T07:17:04.656Z,15.98
2023-02-21T07:19:31.910Z,13.43
2023-02-21T07:21:59.359Z,18.05
2023-02-21T07:24:26.718Z,14.18
2023-02-21T07:26:54.847Z,7.30
2023-02-21T07:29:22.077Z,15.88
2023-02-21T07:31:49.845Z,7.40
2023-02-21T07:34:17.341Z,10.65
2023-02-21T07:36:44.842Z,24.95
2023-02-21T07:39:12.739Z,14.88
2023-02-21T07:41:40.273Z,24.55
2023-02-21T07:44:10.284Z,14.32
2023-02-21T07:46:37.783Z,14.35
2023-02-21T07:49:05.127Z,9.77
2023-02-21T07:51:32.659Z,10.38
2023-02-21T07:53:59.837Z,16.77
2023-02-21T07:56:27.416Z,19.73
2023-02-21T07:58:55.113Z,14.82
2023-02-21T08:01:24.800Z,10.13
2023-02-21T08:03:52.177Z,15.60
2023-02-21T08:06:19.710Z,13.82
2023-02-21T08:08:46.907Z,13.23
2023-02-21T08:11:14.713Z,16.00
2023-02-21T08:13:42.078Z,13.00
2023-02-21T08:16:09.710Z,18.50
2023-02-21T08:18:37.440Z,8.52
2023-02-21T08:21:09.643Z,13.93
2023-02-21T08:23:36.924Z,10.77
2023-02-21T08:26:05.603Z,8.32
2023-02-21T08:28:32.999Z,16.05
2023-02-21T08:31:00.514Z,10.40
2023-02-21T08:33:28.573Z,14.57
2023-02-21T08:35:58.579Z,25.30
2023-02-21T08:38:25.789Z,17.88
2023-02-21T08:40:53.414Z,19.83
2023-02-21T08:43:20.573Z,12.07
2023-02-21T08:45:49.200Z,15.27
2023-02-21T08:48:16.518Z,13.35
2023-02-21T08:50:44.143Z,10.93
2023-02-21T08:53:15.491Z,11.38
2023-02-21T08:55:43.379Z,22.08
2023-02-21T08:58:12.822Z,8.75
2023-02-21T09:00:40.451Z,19.52
2023-02-21T09:03:07.856Z,13.50
2023-02-21T09:05:35.328Z,9.43
2023-02-21T09:08:03.242Z,12.80
2023-02-21T09:10:35.995Z,14.70
2023-02-21T09:13:05.777Z,14.70
2023-02-21T09:15:33.282Z,10.30
2023-02-21T09:18:01.027Z,17.65
2023-02-21T09:20:29.203Z,15.57
2023-02-21T09:22:56.644Z,20.15
2023-02-21T09:25:25.168Z,20.52
2023-02-21T09:27:54.821Z,13.90
2023-02-21T09:30:26.299Z,15.25
2023-02-21T09:32:55.009Z,13.05
2023-02-21T09:35:23.522Z,14.73
2023-02-21T09:37:51.280Z,16.15
2023-02-21T09:40:45.551Z,13.70
2023-02-21T09:43:21.151Z,11.13
2023-02-21T09:45:52.520Z,16.02
2023-02-21T09:48:21.776Z,9.18
2023-02-21T09:50:57.187Z,14.57
2023-02-21T09:53:28.845Z,12.30
2023-02-21T09:56:04.717Z,18.10
2023-02-21T09:58:32.269Z,8.15
2023-02-21T10:01:07.270Z,12.38
2023-02-21T10:04:05.822Z,14.05
2023-02-21T10:06:43.024Z,10.35
2023-02-21T10:09:25.979Z,7.55
2023-02-21T10:12:22.860Z,15.55
2023-02-21T10:14:58.607Z,13.98
2023-02-21T10:17:31.612Z,14.23
2023-02-21T10:20:05.553Z,21.30
2023-02-21T10:22:37.858Z,17.70
2023-02-21T10:25:29.217Z,11.27
2023-02-21T10:27:58.588Z,11.40
2023-02-21T10:30:37.076Z,14.23
2023-02-21T10:33:08.135Z,10.95
2023-02-21T10:35:37.663Z,15.85
2023-02-21T10:38:10.852Z,15.18
2023-02-21T10:40:41.471Z,18.65
2023-02-21T10:43:25.859Z,14.65
2023-02-21T10:46:08.311Z,18.75
2023-02-21T10:48:37.893Z,12.98
2023-02-21T10:51:11.825Z,17.17
2023-02-21T10:53:41.311Z,13.57
2023-02-21T10:56:20.354Z,17.17
2023-02-21T10:59:01.926Z,18.98
2023-02-21T11:01:30.476Z,14.13
2023-02-21T11:04:01.974Z,23.33
2023-02-21T11:06:33.396Z,14.48
2023-02-21T11:09:02.284Z,16.20
2023-02-21T11:11:42.423Z,16.92
2023-02-21T11:14:23.168Z,21.35
2023-02-21T11:17:13.840Z,19.15
2023-02-21T11:19:48.844Z,18.17
2023-02-21T11:22:18.959Z,15.75
2023-02-21T11:24:49.143Z,17.80
2023-02-21T11:27:17.156Z,13.65
2023-02-21T11:29:49.225Z,18.27
2023-02-21T11:32:35.664Z,12.93
2023-02-21T11:35:47.959Z,15.23
2023-02-21T11:38:38.366Z,18.35
2023-02-21T11:41:28.729Z,15.82
2023-02-21T11:43:57.501Z,17.17
2023-02-21T11:46:42.719Z,18.30
2023-02-21T11:49:50.515Z,25.63
2023-02-21T11:52:26.190Z,12.88
2023-02-21T11:54:53.508Z,11.48
2023-02-21T11:57:45.218Z,18.17
2023-02-21T12:00:43.047Z,25.25
2023-02-21T12:03:13.274Z,13.60
2023-02-21T12:06:29.131Z,16.30
2023-02-21T12:09:31.146Z,34.22
2023-02-21T12:12:03.358Z,21.50
2023-02-21T12:14:52.111Z,17.80
2023-02-21T12:17:41.279Z,23.52
2023-02-21T12:20:18.878Z,17.45
2023-02-21T12:23:18.020Z,18.17
2023-02-21T12:26:19.469Z,12.20
2023-02-21T12:28:58.205Z,19.42
2023-02-21T12:31:59.429Z,19.77
2023-02-21T12:34:51.945Z,20.85
2023-02-21T12:37:25.189Z,17.83
2023-02-21T12:40:10.695Z,21.20
2023-02-21T12:42:40.850Z,21.67
2023-02-21T12:45:37.212Z,19.58
2023-02-21T12:48:11.815Z,27.45
2023-02-21T12:50:42.955Z,26.95
2023-02-21T12:53:26.031Z,23.17
2023-02-21T12:56:02.943Z,22.92
2023-02-21T12:58:35.872Z,23.08
2023-02-21T13:01:15.872Z,19.88
2023-02-21T13:04:17.685Z,17.20
2023-02-21T13:07:25.526Z,15.68
2023-02-21T13:10:05.679Z,17.77
2023-02-21T13:12:58.225Z,17.17
2023-02-21T13:15:28.319Z,17.17
2023-02-21T13:18:05.124Z,16.27
2023-02-21T13:20:42.641Z,18.63
2023-02-21T13:23:59.011Z,20.88
2023-02-21T13:27:03.608Z,16.83
2023-02-21T13:29:39.039Z,19.90
2023-02-21T13:32:11.104Z,20.10
2023-02-21T13:35:00.530Z,19.13
2023-02-21T13:37:34.151Z,29.73
2023-02-21T13:40:23.669Z,23.30
2023-02-21T13:43:35.194Z,14.88
2023-02-21T13:46:24.004Z,19.02
2023-02-21T13:49:29.349Z,22.23
2023-02-21T13:52:20.230Z,18.48
2023-02-21T13:55:14.111Z,20.15
2023-02-21T13:57:44.171Z,20.38
2023-02-21T14:00:29.416Z,20.17
2023-02-21T14:03:05.510Z,15.10
2023-02-21T14:05:45.447Z,22.75
2023-02-21T14:08:15.859Z,21.65
2023-02-21T14:10:55.039Z,22.00
2023-02-21T14:13:32.220Z,23.77
2023-02-21T14:16:23.291Z,20.52
2023-02-21T14:18:56.606Z,19.92
2023-02-21T14:21:47.943Z,17.00
2023-02-21T14:24:29.078Z,22.67
2023-02-21T14:27:02.552Z,26.42
2023-02-21T14:29:31.778Z,20.55
2023-02-21T14:32:04.867Z,20.05
2023-02-21T14:34:50.018Z,25.13
2023-02-21T14:37:51.126Z,24.73
2023-02-21T14:40:49.110Z,26.95
2023-02-21T14:43:31.342Z,23.13
2023-02-21T14:46:28.382Z,28.17
2023-02-21T14:49:17.548Z,22.95
2023-02-21T14:52:21.614Z,31.02
2023-02-21T14:55:16.144Z,19.13
2023-02-21T14:58:19.089Z,17.88
2023-02-21T15:01:05.422Z,25.52
2023-02-21T15:03:46.623Z,20.40
2023-02-21T15:06:21.012Z,16.08
2023-02-21T15:08:50.435Z,28.33
2023-02-21T15:11:28.267Z,25.40
2023-02-21T15:14:23.564Z,36.03
2023-02-21T15:16:57.517Z,35.65
2023-02-21T15:19:34.392Z,49.85
2023-02-21T15:22:24.811Z,29.63
2023-02-21T15:25:14.770Z,23.23
2023-02-21T15:27:45.195Z,22.90
2023-02-21T15:30:25.027Z,18.88
2023-02-21T15:33:06.427Z,47.83
2023-02-21T15:35:38.019Z,24.90
2023-02-21T15:38:12.110Z,31.13
2023-02-21T15:40:39.621Z,24.50
2023-02-21T15:43:08.454Z,18.73
2023-02-21T15:45:46.841Z,29.70
2023-02-21T15:48:14.858Z,24.73
2023-02-21T15:50:45.200Z,23.02
2023-02-21T15:53:19.014Z,25.60
2023-02-21T15:55:47.114Z,20.98
2023-02-21T15:58:24.936Z,22.67
2023-02-21T16:01:08.293Z,34.95
2023-02-21T16:03:41.980Z,23.35
2023-02-21T16:06:18.474Z,28.55
2023-02-21T16:09:04.394Z,25.13
2023-02-21T16:11:45.851Z,28.50
2023-02-21T16:14:36.697Z,30.60
2023-02-21T16:17:13.127Z,21.60
2023-02-21T16:19:42.391Z,27.48
2023-02-21T16:22:53.949Z,30.23
2023-02-21T16:25:25.684Z,23.92
2023-02-21T16:27:56.046Z,29.52
2023-02-21T16:30:26.638Z,28.02
2023-02-21T16:32:59.172Z,26.10
2023-02-21T16:35:27.428Z,16.38
2023-02-21T16:37:56.879Z,33.60
2023-02-21T16:40:35.351Z,30.73
2023-02-21T16:43:04.577Z,27.95
2023-02-21T16:45:33.345Z,28.65
2023-02-21T16:48:05.178Z,24.35
2023-02-21T16:50:35.378Z,22.17
2023-02-21T16:53:03.645Z,16.83
2023-02-21T16:55:31.739Z,27.73
2023-02-21T16:58:17.683Z,36.15
2023-02-21T17:00:47.909Z,23.85
2023-02-21T17:03:15.096Z,36.25
2023-02-21T17:05:42.683Z,27.42
2023-02-21T17:08:10.139Z,32.95
2023-02-21T17:10:37.962Z,29.52
2023-02-21T17:13:05.183Z,25.23
2023-02-21T17:15:32.740Z,27.33
2023-02-21T17:18:00.769Z,23.92
2023-02-21T17:20:28.675Z,27.63
2023-02-21T17:22:58.439Z,27.20
2023-02-21T17:25:26.762Z,33.92
2023-02-21T17:27:53.974Z,32.88
2023-02-21T17:30:24.693Z,25.77
2023-02-21T17:32:52.769Z,24.98
2023-02-21T17:35:22.504Z,32.20
2023-02-21T17:37:49.815Z,33.67
2023-02-21T17:40:19.684Z,23.10
2023-02-21T17:42:47.154Z,30.15
2023-02-21T17:45:18.888Z,29.17
2023-02-21T17:47:46.301Z,39.55
2023-02-21T17:50:14.114Z,24.45
2023-02-21T17:52:42.529Z,37.10
2023-02-21T17:55:17.816Z,28.73
2023-02-21T17:57:45.207Z,30.55
2023-02-21T18:00:21.270Z,29.58
2023-02-21T18:02:49.246Z,33.00
2023-02-21T18:05:18.511Z,23.83
2023-02-21T18:07:50.495Z,33.75
2023-02-21T18:12:49.847Z,23.55
2023-02-21T18:15:21.716Z,31.97
2023-02-21T18:17:49.430Z,22.98
2023-02-21T18:20:17.795Z,33.08
2023-02-21T18:22:45.403Z,34.08
2023-02-21T18:25:15.902Z,29.58
2023-02-21T18:27:45.182Z,31.90
2023-02-21T18:30:13.318Z,26.02
2023-02-21T18:32:40.544Z,35.30
2023-02-21T18:35:08.427Z,37.03
2023-02-21T18:37:35.824Z,30.48
2023-02-21T18:40:05.981Z,34.83
2023-02-21T18:42:33.419Z,27.88
2023-02-21T18:45:00.916Z,30.95
2023-02-21T18:47:28.478Z,33.55
2023-02-21T18:49:56.830Z,30.23
2023-02-21T18:52:24.285Z,31.88
2023-02-21T18:54:51.842Z,33.88
2023-02-21T18:57:22.102Z,36.13
2023-02-21T18:59:50.706Z,34.35
2023-02-21T19:02:19.624Z,29.48
2023-02-21T19:04:47.286Z,35.42
2023-02-21T19:07:18.886Z,37.80
2023-02-21T19:09:47.662Z,41.28
2023-02-21T19:12:14.876Z,32.60
2023-02-21T19:14:42.408Z,42.08
2023-02-21T19:17:10.106Z,33.55
2023-02-21T19:19:37.660Z,49.78
2023-02-21T19:22:05.568Z,35.50
2023-02-21T19:24:33.420Z,34.70
2023-02-21T19:27:01.301Z,45.83
2023-02-21T19:29:28.933Z,38.90
2023-02-21T19:31:56.377Z,38.88
2023-02-21T19:34:23.929Z,31.63
2023-02-21T19:36:51.987Z,39.45
2023-02-21T19:39:19.775Z,42.45
2023-02-21T19:41:47.146Z,41.95
2023-02-21T19:44:14.872Z,37.95
2023-02-21T19:46:42.093Z,34.30
2023-02-21T19:49:18.344Z,24.45
2023-02-21T19:51:48.052Z,32.40
2023-02-21T19:54:17.469Z,39.20
2023-02-21T19:56:44.859Z,52.60
2023-02-21T19:59:12.980Z,50.00
2023-02-21T20:01:40.154Z,45.33
2023-02-21T20:04:08.148Z,31.20
2023-02-21T20:06:37.449Z,27.48
2023-02-21T20:09:07.651Z,32.13
2023-02-21T20:11:38.312Z,26.90
2023-02-21T20:14:07.619Z,35.67
2023-02-21T20:16:42.905Z,25.48
2023-02-21T20:19:11.618Z,31.02
2023-02-21T20:21:39.016Z,31.25
2023-02-21T20:24:10.940Z,28.95
2023-02-21T20:26:38.897Z,36.67
2023-02-21T20:29:07.076Z,29.10
2023-02-21T20:31:37.390Z,28.05
2023-02-21T20:34:06.911Z,27.45
2023-02-21T20:36:38.039Z,35.47
2023-02-21T20:39:07.660Z,33.78
2023-02-21T20:41:38.869Z,36.42
2023-02-21T20:44:07.237Z,33.00
2023-02-21T20:46:34.988Z,32.85
2023-02-21T20:49:03.598Z,30.00
2023-02-21T20:51:35.141Z,36.50
2023-02-21T20:54:04.811Z,40.55
2023-02-21T20:56:36.266Z,36.80
2023-02-21T20:59:05.291Z,33.65
2023-02-21T21:01:32.513Z,35.22
2023-02-21T21:04:00.253Z,26.65
2023-02-21T21:06:27.766Z,31.92
2023-02-21T21:08:55.254Z,30.17
2023-02-21T21:11:22.459Z,27.67
2023-02-21T21:13:50.143Z,32.65
2023-02-21T21:16:17.494Z,32.72
2023-02-21T21:18:46.803Z,28.05
2023-02-21T21:21:14.314Z,26.67
2023-02-21T21:23:41.872Z,36.10
2023-02-21T21:26:09.563Z,35.22
2023-02-21T21:28:37.077Z,40.08
2023-02-21T21:31:04.629Z,33.42
2023-02-21T21:33:33.950Z,37.28
2023-02-21T21:36:01.436Z,30.92
2023-02-21T21:38:29.297Z,36.92
2023-02-21T21:40:57.171Z,22.10
2023-02-21T21:43:26.587Z,32.92
2023-02-21T21:45:53.992Z,24.25
2023-02-21T21:48:21.447Z,32.03
2023-02-21T21:50:48.614Z,33.70
2023-02-21T21:53:17.011Z,30.27
2023-02-21T21:55:44.227Z,29.35
2023-02-21T21:58:13.874Z,37.50
2023-02-21T22:00:46.404Z,32.58
2023-02-21T22:03:18.333Z,31.25
2023-02-21T22:05:46.314Z,30.95
2023-02-21T22:08:18.651Z,36.13
2023-02-21T22:10:46.064Z,32.25
2023-02-21T22:13:14.020Z,41.40
2023-02-21T22:15:43.225Z,31.75
2023-02-21T22:18:12.304Z,28.70
2023-02-21T22:20:39.521Z,42.03
2023-02-21T22:23:07.299Z,37.92
2023-02-21T22:25:37.047Z,35.25
2023-02-21T22:28:12.949Z,34.85
2023-02-21T22:30:40.760Z,28.15
2023-02-21T22:33:14.530Z,43.03
2023-02-21T22:35:41.830Z,34.22
2023-02-21T22:38:14.349Z,33.25
2023-02-21T22:43:10.360Z,33.38
2023-02-21T22:45:38.270Z,34.50
2023-02-21T22:48:07.874Z,37.15
2023-02-21T22:50:37.005Z,38.00
2023-02-21T22:53:08.394Z,41.22
2023-02-21T22:55:37.355Z,39.42
2023-02-21T22:58:07.458Z,37.75
2023-02-21T23:00:37.807Z,37.38
2023-02-21T23:03:14.067Z,42.78
2023-02-21T23:05:50.302Z,35.55
2023-02-21T23:08:22.836Z,29.75
2023-02-21T23:10:50.206Z,46.85
2023-02-21T23:13:20.673Z,37.15
2023-02-21T23:15:48.877Z,42.17
2023-02-21T23:18:20.626Z,36.10
2023-02-21T23:20:53.656Z,46.13
2023-02-21T23:23:25.942Z,56.35
2023-02-21T23:25:56.441Z,55.13
2023-02-21T23:28:23.911Z,57.42
2023-02-21T23:30:51.230Z,44.92
2023-02-21T23:33:30.155Z,41.92
2023-02-21T23:35:58.049Z,43.33
2023-02-21T23:38:28.255Z,49.03
2023-02-21T23:40:58.019Z,42.20
2023-02-21T23:43:29.537Z,45.45
2023-02-21T23:45:57.979Z,38.28
2023-02-21T23:48:25.963Z,47.10
2023-02-21T23:50:57.613Z,43.83
2023-02-21T23:53:29.290Z,50.47
2023-02-21T23:55:57.750Z,45.67
2023-02-21T23:58:28.123Z,40.25
